sensor_id;sensor_type;location;lat;lon;timestamp;pressure;altitude;pressure_sealevel;temperature;humidity
22047;BME280;11187;49.412;20.956;2022-11-24T00:01:00;93912.66;;;0.27;100.00
22047;BME280;11187;49.412;20.956;2022-11-24T00:03:33;93914.34;;;0.27;100.00
22047;BME280;11187;49.412;20.956;2022-11-24T00:06:28;93910.16;;;0.24;100.00
22047;BME280;11187;49.412;20.956;2022-11-24T00:09:22;93911.81;;;0.17;100.00
22047;BME280;11187;49.412;20.956;2022-11-24T00:11:55;93909.31;;;0.19;100.00
22047;BME280;11187;49.412;20.956;2022-11-24T00:14:49;93906.78;;;0.19;100.00
22047;BME280;11187;49.412;20.956;2022-11-24T00:17:43;93911.84;;;0.20;100.00
22047;BME280;11187;49.412;20.956;2022-11-24T00:20:37;93921.06;;;0.23;100.00
22047;BME280;11187;49.412;20.956;2022-11-24T00:23:10;93916.88;;;0.24;100.00
22047;BME280;11187;49.412;20.956;2022-11-24T00:28:41;93925.25;;;0.24;100.00
22047;BME280;11187;49.412;20.956;2022-11-24T00:31:37;93919.41;;;0.25;100.00
22047;BME280;11187;49.412;20.956;2022-11-24T00:34:31;93924.41;;;0.27;100.00
22047;BME280;11187;49.412;20.956;2022-11-24T00:37:25;93919.38;;;0.27;100.00
22047;BME280;11187;49.412;20.956;2022-11-24T00:39:58;93916.88;;;0.27;100.00
22047;BME280;11187;49.412;20.956;2022-11-24T00:42:52;93910.16;;;0.26;100.00
22047;BME280;11187;49.412;20.956;2022-11-24T00:45:25;93917.72;;;0.26;100.00
22047;BME280;11187;49.412;20.956;2022-11-24T00:48:19;93922.72;;;0.23;100.00
22047;BME280;11187;49.412;20.956;2022-11-24T00:51:14;93921.06;;;0.22;100.00
22047;BME280;11187;49.412;20.956;2022-11-24T00:54:09;93915.19;;;0.21;100.00
22047;BME280;11187;49.412;20.956;2022-11-24T00:57:03;93921.06;;;0.18;100.00
22047;BME280;11187;49.412;20.956;2022-11-24T00:59:36;93920.22;;;0.19;100.00
22047;BME280;11187;49.412;20.956;2022-11-24T01:02:23;93918.53;;;0.17;100.00
22047;BME280;11187;49.412;20.956;2022-11-24T01:04:56;93923.56;;;0.17;100.00
22047;BME280;11187;49.412;20.956;2022-11-24T01:07:43;93918.53;;;0.15;100.00
22047;BME280;11187;49.412;20.956;2022-11-24T01:10:16;93920.22;;;0.16;100.00
22047;BME280;11187;49.412;20.956;2022-11-24T01:13:03;93924.38;;;0.13;100.00
22047;BME280;11187;49.412;20.956;2022-11-24T01:15:36;93931.97;;;0.14;100.00
22047;BME280;11187;49.412;20.956;2022-11-24T01:18:23;93934.47;;;0.14;100.00
22047;BME280;11187;49.412;20.956;2022-11-24T01:20:56;93934.47;;;0.14;100.00
22047;BME280;11187;49.412;20.956;2022-11-24T01:23:49;93939.47;;;0.11;100.00
22047;BME280;11187;49.412;20.956;2022-11-24T01:26:22;93929.41;;;0.07;100.00
22047;BME280;11187;49.412;20.956;2022-11-24T01:29:09;93935.28;;;0.06;100.00
22047;BME280;11187;49.412;20.956;2022-11-24T01:31:43;93935.28;;;0.06;100.00
22047;BME280;11187;49.412;20.956;2022-11-24T01:34:30;93938.63;;;0.06;100.00
22047;BME280;11187;49.412;20.956;2022-11-24T01:37:03;93937.81;;;0.07;100.00
22047;BME280;11187;49.412;20.956;2022-11-24T01:39:57;93938.66;;;0.08;100.00
22047;BME280;11187;49.412;20.956;2022-11-24T01:42:51;93934.44;;;0.05;100.00
22047;BME280;11187;49.412;20.956;2022-11-24T01:45:31;93942.00;;;0.05;100.00
22047;BME280;11187;49.412;20.956;2022-11-24T01:48:27;93947.03;;;0.05;100.00
22047;BME280;11187;49.412;20.956;2022-11-24T01:51:09;93948.72;;;0.08;100.00
22047;BME280;11187;49.412;20.956;2022-11-24T01:54:09;93951.22;;;0.11;100.00
22047;BME280;11187;49.412;20.956;2022-11-24T01:57:18;93957.97;;;0.12;100.00
22047;BME280;11187;49.412;20.956;2022-11-24T01:59:57;93956.28;;;0.12;100.00
22047;BME280;11187;49.412;20.956;2022-11-24T02:02:45;93954.59;;;0.13;100.00
22047;BME280;11187;49.412;20.956;2022-11-24T02:08:41;93968.03;;;0.16;100.00
22047;BME280;11187;49.412;20.956;2022-11-24T02:11:38;93972.19;;;0.16;100.00
22047;BME280;11187;49.412;20.956;2022-11-24T02:14:14;93970.56;;;0.16;100.00
22047;BME280;11187;49.412;20.956;2022-11-24T02:17:02;93973.91;;;0.18;100.00
22047;BME280;11187;49.412;20.956;2022-11-24T02:22:31;93976.44;;;0.18;100.00
22047;BME280;11187;49.412;20.956;2022-11-24T02:28:18;93978.09;;;0.18;100.00
22047;BME280;11187;49.412;20.956;2022-11-24T02:30:52;93975.56;;;0.18;100.00
22047;BME280;11187;49.412;20.956;2022-11-24T02:33:40;93983.97;;;0.17;100.00
22047;BME280;11187;49.412;20.956;2022-11-24T02:36:13;93980.63;;;0.16;100.00
22047;BME280;11187;49.412;20.956;2022-11-24T02:39:00;93983.13;;;0.16;100.00
22047;BME280;11187;49.412;20.956;2022-11-24T02:41:33;93973.91;;;0.17;100.00
22047;BME280;11187;49.412;20.956;2022-11-24T02:44:22;93979.78;;;0.17;100.00
22047;BME280;11187;49.412;20.956;2022-11-24T02:47:07;93985.66;;;0.19;100.00
22047;BME280;11187;49.412;20.956;2022-11-24T02:49:55;93986.50;;;0.18;100.00
22047;BME280;11187;49.412;20.956;2022-11-24T02:52:49;93989.84;;;0.17;100.00
22047;BME280;11187;49.412;20.956;2022-11-24T02:55:43;93981.44;;;0.15;100.00
22047;BME280;11187;49.412;20.956;2022-11-24T02:58:37;93992.34;;;0.17;100.00
22047;BME280;11187;49.412;20.956;2022-11-24T03:01:31;93991.50;;;0.15;100.00
22047;BME280;11187;49.412;20.956;2022-11-24T03:04:05;93989.84;;;0.14;100.00
22047;BME280;11187;49.412;20.956;2022-11-24T03:06:59;93990.66;;;0.15;100.00
22047;BME280;11187;49.412;20.956;2022-11-24T03:09:53;93986.50;;;0.14;100.00
22047;BME280;11187;49.412;20.956;2022-11-24T03:12:47;93986.47;;;0.12;100.00
22047;BME280;11187;49.412;20.956;2022-11-24T03:15:21;93985.63;;;0.13;100.00
22047;BME280;11187;49.412;20.956;2022-11-24T03:18:08;93982.28;;;0.13;100.00
22047;BME280;11187;49.412;20.956;2022-11-24T03:20:41;93983.13;;;0.12;100.00
22047;BME280;11187;49.412;20.956;2022-11-24T03:23:28;93977.25;;;0.13;100.00
22047;BME280;11187;49.412;20.956;2022-11-24T03:26:20;93989.81;;;0.13;100.00
22047;BME280;11187;49.412;20.956;2022-11-24T03:29:14;93984.78;;;0.13;100.00
22047;BME280;11187;49.412;20.956;2022-11-24T03:31:47;93991.50;;;0.12;100.00
22047;BME280;11187;49.412;20.956;2022-11-24T03:34:41;93999.06;;;0.12;100.00
22047;BME280;11187;49.412;20.956;2022-11-24T03:37:14;93999.06;;;0.12;100.00
22047;BME280;11187;49.412;20.956;2022-11-24T03:40:08;93994.03;;;0.09;100.00
22047;BME280;11187;49.412;20.956;2022-11-24T03:43:02;93995.69;;;0.06;100.00
22047;BME280;11187;49.412;20.956;2022-11-24T03:45:56;93996.53;;;0.05;100.00
22047;BME280;11187;49.412;20.956;2022-11-24T03:48:29;93995.69;;;0.06;100.00
22047;BME280;11187;49.412;20.956;2022-11-24T03:51:16;93996.53;;;0.05;100.00
22047;BME280;11187;49.412;20.956;2022-11-24T03:54:10;93997.31;;;0.02;100.00
22047;BME280;11187;49.412;20.956;2022-11-24T03:56:43;93988.94;;;-0.02;100.00
22047;BME280;11187;49.412;20.956;2022-11-24T03:59:30;93995.66;;;0.01;100.00
22047;BME280;11187;49.412;20.956;2022-11-24T04:02:03;93999.84;;;0.02;100.00
22047;BME280;11187;49.412;20.956;2022-11-24T04:04:57;94002.38;;;0.02;100.00
22047;BME280;11187;49.412;20.956;2022-11-24T04:07:31;94002.38;;;0.02;100.00
22047;BME280;11187;49.412;20.956;2022-11-24T04:10:25;94000.72;;;0.03;100.00
22047;BME280;11187;49.412;20.956;2022-11-24T04:12:58;94009.94;;;0.04;100.00
22047;BME280;11187;49.412;20.956;2022-11-24T04:15:52;94000.69;;;0.04;100.00
22047;BME280;11187;49.412;20.956;2022-11-24T04:18:46;94015.81;;;0.06;100.00
22047;BME280;11187;49.412;20.956;2022-11-24T04:21:40;94011.63;;;0.05;100.00
22047;BME280;11187;49.412;20.956;2022-11-24T04:24:13;94018.31;;;0.04;100.00
22047;BME280;11187;49.412;20.956;2022-11-24T04:27:00;94017.47;;;0.04;100.00
22047;BME280;11187;49.412;20.956;2022-11-24T04:29:33;94025.03;;;0.04;100.00
22047;BME280;11187;49.412;20.956;2022-11-24T04:32:20;94025.84;;;0.04;100.00
22047;BME280;11187;49.412;20.956;2022-11-24T04:34:53;94020.84;;;0.03;100.00
22047;BME280;11187;49.412;20.956;2022-11-24T04:37:40;94025.03;;;0.05;100.00
22047;BME280;11187;49.412;20.956;2022-11-24T04:40:13;94033.44;;;0.07;100.00
22047;BME280;11187;49.412;20.956;2022-11-24T04:43:01;94034.28;;;0.08;100.00
22047;BME280;11187;49.412;20.956;2022-11-24T04:45:34;94026.72;;;0.08;100.00
22047;BME280;11187;49.412;20.956;2022-11-24T04:48:21;94039.28;;;0.06;100.00
22047;BME280;11187;49.412;20.956;2022-11-24T04:50:54;94039.31;;;0.08;100.00
22047;BME280;11187;49.412;20.956;2022-11-24T04:53:41;94040.13;;;0.08;100.00
22047;BME280;11187;49.412;20.956;2022-11-24T04:56:14;94035.09;;;0.07;100.00
22047;BME280;11187;49.412;20.956;2022-11-24T04:59:01;94032.59;;;0.05;100.00
22047;BME280;11187;49.412;20.956;2022-11-24T05:01:34;94035.09;;;0.08;100.00
22047;BME280;11187;49.412;20.956;2022-11-24T05:04:21;94035.94;;;0.07;100.00
22047;BME280;11187;49.412;20.956;2022-11-24T05:06:54;94042.66;;;0.08;100.00
22047;BME280;11187;49.412;20.956;2022-11-24T05:09:41;94041.84;;;0.09;100.00
22047;BME280;11187;49.412;20.956;2022-11-24T05:12:32;94049.38;;;0.09;100.00
22047;BME280;11187;49.412;20.956;2022-11-24T05:15:19;94046.88;;;0.12;100.00
22047;BME280;11187;49.412;20.956;2022-11-24T05:17:52;94054.44;;;0.14;100.00
22047;BME280;11187;49.412;20.956;2022-11-24T05:20:40;94052.75;;;0.13;100.00
22047;BME280;11187;49.412;20.956;2022-11-24T05:23:14;94047.72;;;0.13;100.00
22047;BME280;11187;49.412;20.956;2022-11-24T05:26:08;94052.75;;;0.16;100.00
22047;BME280;11187;49.412;20.956;2022-11-24T05:29:02;94051.91;;;0.15;100.00
22047;BME280;11187;49.412;20.956;2022-11-24T05:31:35;94059.47;;;0.17;100.00
22047;BME280;11187;49.412;20.956;2022-11-24T05:34:22;94064.50;;;0.17;100.00
22047;BME280;11187;49.412;20.956;2022-11-24T05:36:55;94067.84;;;0.17;100.00
22047;BME280;11187;49.412;20.956;2022-11-24T05:39:42;94065.34;;;0.17;100.00
22047;BME280;11187;49.412;20.956;2022-11-24T05:42:15;94076.25;;;0.18;100.00
22047;BME280;11187;49.412;20.956;2022-11-24T05:45:27;94077.09;;;0.18;100.00
22047;BME280;11187;49.412;20.956;2022-11-24T05:48:21;94077.13;;;0.22;100.00
22047;BME280;11187;49.412;20.956;2022-11-24T05:51:15;94083.81;;;0.21;100.00
22047;BME280;11187;49.412;20.956;2022-11-24T05:54:09;94088.88;;;0.21;100.00
22047;BME280;11187;49.412;20.956;2022-11-24T05:57:03;94093.03;;;0.22;100.00
22047;BME280;11187;49.412;20.956;2022-11-24T05:59:36;94100.63;;;0.24;100.00
22047;BME280;11187;49.412;20.956;2022-11-24T06:02:23;94103.94;;;0.23;100.00
22047;BME280;11187;49.412;20.956;2022-11-24T06:04:56;94104.81;;;0.22;100.00
22047;BME280;11187;49.412;20.956;2022-11-24T06:07:50;94099.75;;;0.17;100.00
22047;BME280;11187;49.412;20.956;2022-11-24T06:10:24;94105.59;;;0.14;100.00
22047;BME280;11187;49.412;20.956;2022-11-24T06:13:11;94107.28;;;0.15;100.00
22047;BME280;11187;49.412;20.956;2022-11-24T06:15:44;94119.03;;;0.19;100.00
22047;BME280;11187;49.412;20.956;2022-11-24T06:18:31;94120.72;;;0.17;100.00
22047;BME280;11187;49.412;20.956;2022-11-24T06:21:05;94124.09;;;0.19;100.00
22047;BME280;11187;49.412;20.956;2022-11-24T06:23:59;94125.72;;;0.16;100.00
22047;BME280;11187;49.412;20.956;2022-11-24T06:26:32;94126.56;;;0.15;100.00
22047;BME280;11187;49.412;20.956;2022-11-24T06:29:19;94132.47;;;0.14;100.00
22047;BME280;11187;49.412;20.956;2022-11-24T06:31:52;94135.78;;;0.16;100.00
22047;BME280;11187;49.412;20.956;2022-11-24T06:34:46;94138.31;;;0.13;100.00
22047;BME280;11187;49.412;20.956;2022-11-24T06:37:40;94134.09;;;0.13;100.00
22047;BME280;11187;49.412;20.956;2022-11-24T06:40:13;94140.00;;;0.12;100.00
22047;BME280;11187;49.412;20.956;2022-11-24T06:43:07;94143.34;;;0.13;100.00
22047;BME280;11187;49.412;20.956;2022-11-24T06:45:40;94139.19;;;0.16;100.00
22047;BME280;11187;49.412;20.956;2022-11-24T06:48:27;94140.84;;;0.17;100.00
22047;BME280;11187;49.412;20.956;2022-11-24T06:51:06;94154.31;;;0.24;100.00
22047;BME280;11187;49.412;20.956;2022-11-24T06:54:00;94153.50;;;0.28;100.00
22047;BME280;11187;49.412;20.956;2022-11-24T06:56:33;94151.84;;;0.33;100.00
22047;BME280;11187;49.412;20.956;2022-11-24T06:59:20;94146.00;;;0.39;100.00
22047;BME280;11187;49.412;20.956;2022-11-24T07:01:53;94149.38;;;0.44;100.00
22047;BME280;11187;49.412;20.956;2022-11-24T07:04:47;94159.47;;;0.49;100.00
22047;BME280;11187;49.412;20.956;2022-11-24T07:07:41;94160.34;;;0.52;100.00
22047;BME280;11187;49.412;20.956;2022-11-24T07:10:16;94161.19;;;0.59;100.00
22047;BME280;11187;49.412;20.956;2022-11-24T07:13:08;94158.69;;;0.60;100.00
22047;BME280;11187;49.412;20.956;2022-11-24T07:15:42;94167.94;;;0.61;100.00
22047;BME280;11187;49.412;20.956;2022-11-24T07:18:29;94170.47;;;0.66;100.00
22047;BME280;11187;49.412;20.956;2022-11-24T07:21:03;94168.78;;;0.70;100.00
22047;BME280;11187;49.412;20.956;2022-11-24T07:23:51;94174.69;;;0.75;100.00
22047;BME280;11187;49.412;20.956;2022-11-24T07:26:25;94178.91;;;0.77;100.00
22047;BME280;11187;49.412;20.956;2022-11-24T07:29:16;94176.41;;;0.82;100.00
22047;BME280;11187;49.412;20.956;2022-11-24T07:31:49;94182.31;;;0.87;100.00
22047;BME280;11187;49.412;20.956;2022-11-24T07:34:44;94184.81;;;0.90;100.00
22047;BME280;11187;49.412;20.956;2022-11-24T07:37:17;94180.63;;;0.92;100.00
22047;BME280;11187;49.412;20.956;2022-11-24T07:40:10;94182.31;;;0.95;100.00
22047;BME280;11187;49.412;20.956;2022-11-24T07:42:43;94184.03;;;0.99;100.00
22047;BME280;11187;49.412;20.956;2022-11-24T07:45:30;94177.31;;;1.02;100.00
22047;BME280;11187;49.412;20.956;2022-11-24T07:48:03;94176.47;;;1.05;100.00
22047;BME280;11187;49.412;20.956;2022-11-24T07:51:04;94175.66;;;1.11;100.00
22047;BME280;11187;49.412;20.956;2022-11-24T07:53:58;94181.56;;;1.14;100.00
22047;BME280;11187;49.412;20.956;2022-11-24T07:56:52;94183.22;;;1.20;100.00
22047;BME280;11187;49.412;20.956;2022-11-24T07:59:46;94184.94;;;1.25;100.00
22047;BME280;11187;49.412;20.956;2022-11-24T08:02:40;94188.31;;;1.35;100.00
22047;BME280;11187;49.412;20.956;2022-11-24T08:05:34;94192.53;;;1.44;100.00
22047;BME280;11187;49.412;20.956;2022-11-24T08:08:29;94192.56;;;1.50;100.00
22047;BME280;11187;49.412;20.956;2022-11-24T08:11:16;94195.06;;;1.52;100.00
22047;BME280;11187;49.412;20.956;2022-11-24T08:13:49;94198.44;;;1.54;100.00
22047;BME280;11187;49.412;20.956;2022-11-24T08:16:43;94199.25;;;1.50;100.00
22047;BME280;11187;49.412;20.956;2022-11-24T08:19:16;94200.09;;;1.52;100.00
22047;BME280;11187;49.412;20.956;2022-11-24T08:22:03;94199.28;;;1.53;100.00
22047;BME280;11187;49.412;20.956;2022-11-24T08:24:36;94194.22;;;1.59;100.00
22047;BME280;11187;49.412;20.956;2022-11-24T08:27:26;94200.13;;;1.59;100.00
22047;BME280;11187;49.412;20.956;2022-11-24T08:29:59;94200.13;;;1.59;100.00
22047;BME280;11187;49.412;20.956;2022-11-24T08:32:53;94202.66;;;1.59;100.00
22047;BME280;11187;49.412;20.956;2022-11-24T08:35:47;94206.81;;;1.54;100.00
22047;BME280;11187;49.412;20.956;2022-11-24T08:38:20;94211.03;;;1.54;100.00
22047;BME280;11187;49.412;20.956;2022-11-24T08:41:09;94206.84;;;1.56;100.00
22047;BME280;11187;49.412;20.956;2022-11-24T08:43:45;94213.56;;;1.58;100.00
22047;BME280;11187;49.412;20.956;2022-11-24T08:46:39;94217.78;;;1.61;100.00
22047;BME280;11187;49.412;20.956;2022-11-24T08:49:12;94223.69;;;1.64;100.00
22047;BME280;11187;49.412;20.956;2022-11-24T08:52:00;94217.78;;;1.64;100.00
22047;BME280;11187;49.412;20.956;2022-11-24T08:54:33;94228.72;;;1.66;100.00
22047;BME280;11187;49.412;20.956;2022-11-24T08:57:20;94233.75;;;1.67;100.00
22047;BME280;11187;49.412;20.956;2022-11-24T08:59:53;94230.41;;;1.70;100.00
22047;BME280;11187;49.412;20.956;2022-11-24T09:02:40;94227.91;;;1.73;100.00
22047;BME280;11187;49.412;20.956;2022-11-24T09:05:14;94230.41;;;1.70;100.00
22047;BME280;11187;49.412;20.956;2022-11-24T09:08:29;94233.75;;;1.72;100.00
22047;BME280;11187;49.412;20.956;2022-11-24T09:11:07;94234.63;;;1.71;100.00
22047;BME280;11187;49.412;20.956;2022-11-24T09:13:56;94226.22;;;1.71;100.00
22047;BME280;11187;49.412;20.956;2022-11-24T09:16:29;94232.91;;;1.75;100.00
22047;BME280;11187;49.412;20.956;2022-11-24T09:19:24;94230.41;;;1.79;100.00
22047;BME280;11187;49.412;20.956;2022-11-24T09:21:58;94232.09;;;1.83;100.00
22047;BME280;11187;49.412;20.956;2022-11-24T09:24:45;94233.78;;;1.89;100.00
22047;BME280;11187;49.412;20.956;2022-11-24T09:27:18;94239.69;;;1.94;100.00
22047;BME280;11187;49.412;20.956;2022-11-24T09:30:12;94231.28;;;1.98;100.00
22047;BME280;11187;49.412;20.956;2022-11-24T09:33:06;94238.00;;;2.02;100.00
22047;BME280;11187;49.412;20.956;2022-11-24T09:35:39;94239.69;;;2.03;100.00
22047;BME280;11187;49.412;20.956;2022-11-24T09:38:26;94242.22;;;2.05;100.00
22047;BME280;11187;49.412;20.956;2022-11-24T09:50:23;94254.84;;;2.14;100.00
22047;BME280;11187;49.412;20.956;2022-11-24T09:53:00;94247.25;;;2.19;100.00
22047;BME280;11187;49.412;20.956;2022-11-24T09:55:54;94248.94;;;2.20;100.00
22047;BME280;11187;49.412;20.956;2022-11-24T10:01:43;94260.72;;;2.18;100.00
22047;BME280;11187;49.412;20.956;2022-11-24T10:04:39;94259.06;;;2.09;100.00
22047;BME280;11187;49.412;20.956;2022-11-24T10:07:44;94269.13;;;2.03;100.00
22047;BME280;11187;49.412;20.956;2022-11-24T10:10:56;94267.44;;;1.94;100.00
22047;BME280;11187;49.412;20.956;2022-11-24T10:14:11;94261.56;;;1.92;100.00
22047;BME280;11187;49.412;20.956;2022-11-24T10:20:21;94255.66;;;1.92;100.00
22047;BME280;11187;49.412;20.956;2022-11-24T10:23:35;94266.59;;;1.89;100.00
22047;BME280;11187;49.412;20.956;2022-11-24T10:31:45;94264.06;;;1.81;100.00
22047;BME280;11187;49.412;20.956;2022-11-24T10:34:40;94256.50;;;1.84;100.00
22047;BME280;11187;49.412;20.956;2022-11-24T10:37:34;94259.03;;;1.87;100.00
22047;BME280;11187;49.412;20.956;2022-11-24T10:40:38;94258.19;;;1.87;100.00
22047;BME280;11187;49.412;20.956;2022-11-24T10:43:28;94259.03;;;1.87;100.00
22047;BME280;11187;49.412;20.956;2022-11-24T10:46:25;94260.69;;;1.85;100.00
22047;BME280;11187;49.412;20.956;2022-11-24T10:49:04;94262.38;;;1.85;100.00
22047;BME280;11187;49.412;20.956;2022-11-24T10:52:04;94261.53;;;1.74;100.00
22047;BME280;11187;49.412;20.956;2022-11-24T10:55:01;94267.41;;;1.66;100.00
22047;BME280;11187;49.412;20.956;2022-11-24T10:58:13;94267.38;;;1.60;100.00
22047;BME280;11187;49.412;20.956;2022-11-24T11:00:47;94268.22;;;1.55;100.00
22047;BME280;11187;49.412;20.956;2022-11-24T11:03:45;94273.28;;;1.50;100.00
22047;BME280;11187;49.412;20.956;2022-11-24T11:06:29;94267.34;;;1.46;100.00
22047;BME280;11187;49.412;20.956;2022-11-24T11:09:21;94269.03;;;1.44;100.00
22047;BME280;11187;49.412;20.956;2022-11-24T11:11:54;94266.50;;;1.44;100.00
22047;BME280;11187;49.412;20.956;2022-11-24T11:15:30;94259.78;;;1.45;100.00
22047;BME280;11187;49.412;20.956;2022-11-24T11:18:32;94264.00;;;1.46;100.00
22047;BME280;11187;49.412;20.956;2022-11-24T11:21:05;94260.63;;;1.44;100.00
22047;BME280;11187;49.412;20.956;2022-11-24T11:24:00;94261.47;;;1.46;100.00
22047;BME280;11187;49.412;20.956;2022-11-24T11:27:03;94265.69;;;1.45;100.00
22047;BME280;11187;49.412;20.956;2022-11-24T11:29:37;94252.22;;;1.45;100.00
22047;BME280;11187;49.412;20.956;2022-11-24T11:35:46;94260.63;;;1.42;100.00
22047;BME280;11187;49.412;20.956;2022-11-24T11:38:36;94262.28;;;1.40;100.00
22047;BME280;11187;49.412;20.956;2022-11-24T11:41:29;94261.44;;;1.43;100.00
22047;BME280;11187;49.412;20.956;2022-11-24T11:47:35;94263.13;;;1.39;100.00
22047;BME280;11187;49.412;20.956;2022-11-24T11:50:14;94263.16;;;1.41;100.00
22047;BME280;11187;49.412;20.956;2022-11-24T11:53:21;94270.72;;;1.42;100.00
22047;BME280;11187;49.412;20.956;2022-11-24T11:56:20;94269.84;;;1.40;100.00
22047;BME280;11187;49.412;20.956;2022-11-24T11:59:40;94267.34;;;1.40;100.00
22047;BME280;11187;49.412;20.956;2022-11-24T12:03:15;94271.53;;;1.40;100.00
22047;BME280;11187;49.412;20.956;2022-11-24T12:06:19;94267.34;;;1.40;100.00
22047;BME280;11187;49.412;20.956;2022-11-24T12:09:23;94264.84;;;1.43;100.00
22047;BME280;11187;49.412;20.956;2022-11-24T12:15:09;94264.81;;;1.39;100.00
22047;BME280;11187;49.412;20.956;2022-11-24T12:17:55;94268.19;;;1.39;100.00
22047;BME280;11187;49.412;20.956;2022-11-24T12:21:27;94266.50;;;1.37;100.00
22047;BME280;11187;49.412;20.956;2022-11-24T12:27:07;94278.25;;;1.33;100.00
22047;BME280;11187;49.412;20.956;2022-11-24T12:30:11;94269.84;;;1.33;100.00
22047;BME280;11187;49.412;20.956;2022-11-24T12:36:18;94269.00;;;1.32;100.00
22047;BME280;11187;49.412;20.956;2022-11-24T12:39:04;94273.19;;;1.33;100.00
22047;BME280;11187;49.412;20.956;2022-11-24T12:42:08;94266.50;;;1.37;100.00
22047;BME280;11187;49.412;20.956;2022-11-24T12:50:44;94263.13;;;1.33;100.00
22047;BME280;11187;49.412;20.956;2022-11-24T12:53:31;94271.53;;;1.35;100.00
22047;BME280;11187;49.412;20.956;2022-11-24T12:56:24;94267.31;;;1.33;100.00
22047;BME280;11187;49.412;20.956;2022-11-24T12:59:32;94269.81;;;1.31;100.00
22047;BME280;11187;49.412;20.956;2022-11-24T13:05:40;94272.34;;;1.31;100.00
22047;BME280;11187;49.412;20.956;2022-11-24T13:08:36;94267.31;;;1.30;100.00
22047;BME280;11187;49.412;20.956;2022-11-24T13:11:39;94274.03;;;1.31;100.00
22047;BME280;11187;49.412;20.956;2022-11-24T13:14:21;94270.66;;;1.29;100.00
22047;BME280;11187;49.412;20.956;2022-11-24T13:17:28;94269.00;;;1.28;100.00
22047;BME280;11187;49.412;20.956;2022-11-24T13:20:35;94274.88;;;1.28;100.00
22047;BME280;11187;49.412;20.956;2022-11-24T13:23:25;94276.53;;;1.26;100.00
22047;BME280;11187;49.412;20.956;2022-11-24T13:26:14;94281.59;;;1.28;100.00
22047;BME280;11187;49.412;20.956;2022-11-24T13:29:03;94279.06;;;1.26;100.00
22047;BME280;11187;49.412;20.956;2022-11-24T13:31:50;94280.72;;;1.27;100.00
22047;BME280;11187;49.412;20.956;2022-11-24T13:46:58;94278.22;;;1.27;100.00
22047;BME280;11187;49.412;20.956;2022-11-24T13:49:46;94283.25;;;1.27;100.00
22047;BME280;11187;49.412;20.956;2022-11-24T13:55:35;94289.97;;;1.27;100.00
22047;BME280;11187;49.412;20.956;2022-11-24T13:59:39;94286.66;;;1.28;100.00
22047;BME280;11187;49.412;20.956;2022-11-24T14:02:18;94293.34;;;1.29;100.00
22047;BME280;11187;49.412;20.956;2022-11-24T14:04:54;94300.09;;;1.30;100.00
22047;BME280;11187;49.412;20.956;2022-11-24T14:07:44;94301.78;;;1.31;100.00
22047;BME280;11187;49.412;20.956;2022-11-24T14:10:31;94309.31;;;1.29;100.00
22047;BME280;11187;49.412;20.956;2022-11-24T14:16:11;94316.91;;;1.28;100.00
22047;BME280;11187;49.412;20.956;2022-11-24T14:19:08;94319.44;;;1.28;100.00
22047;BME280;11187;49.412;20.956;2022-11-24T14:21:41;94324.44;;;1.26;100.00
22047;BME280;11187;49.412;20.956;2022-11-24T14:24:32;94329.50;;;1.26;100.00
22047;BME280;11187;49.412;20.956;2022-11-24T14:27:15;94327.81;;;1.23;100.00
22047;BME280;11187;49.412;20.956;2022-11-24T14:33:09;94340.41;;;1.23;100.00
22047;BME280;11187;49.412;20.956;2022-11-24T14:35:45;94342.94;;;1.23;100.00
22047;BME280;11187;49.412;20.956;2022-11-24T14:38:32;94345.44;;;1.22;100.00
22047;BME280;11187;49.412;20.956;2022-11-24T14:41:21;94342.91;;;1.22;100.00
22047;BME280;11187;49.412;20.956;2022-11-24T14:44:20;94342.91;;;1.19;100.00
22047;BME280;11187;49.412;20.956;2022-11-24T14:47:31;94338.69;;;1.16;100.00
22047;BME280;11187;49.412;20.956;2022-11-24T14:50:11;94347.94;;;1.17;100.00
22047;BME280;11187;49.412;20.956;2022-11-24T14:53:11;94347.09;;;1.17;100.00
22047;BME280;11187;49.412;20.956;2022-11-24T14:58:55;94350.44;;;1.16;100.00
22047;BME280;11187;49.412;20.956;2022-11-24T15:01:49;94353.81;;;1.16;100.00
22047;BME280;11187;49.412;20.956;2022-11-24T15:04:55;94353.81;;;1.15;100.00
22047;BME280;11187;49.412;20.956;2022-11-24T15:07:59;94357.16;;;1.15;100.00
22047;BME280;11187;49.412;20.956;2022-11-24T15:10:35;94366.41;;;1.15;100.00
22047;BME280;11187;49.412;20.956;2022-11-24T15:13:34;94370.63;;;1.14;100.00
22047;BME280;11187;49.412;20.956;2022-11-24T15:16:15;94370.63;;;1.14;100.00
22047;BME280;11187;49.412;20.956;2022-11-24T15:19:14;94377.34;;;1.14;100.00
22047;BME280;11187;49.412;20.956;2022-11-24T15:28:20;94390.75;;;1.11;100.00
22047;BME280;11187;49.412;20.956;2022-11-24T15:31:02;94385.72;;;1.13;100.00
22047;BME280;11187;49.412;20.956;2022-11-24T15:33:49;94387.41;;;1.09;100.00
22047;BME280;11187;49.412;20.956;2022-11-24T15:36:22;94393.25;;;1.08;100.00
22047;BME280;11187;49.412;20.956;2022-11-24T15:39:16;94400.81;;;1.08;100.00
22047;BME280;11187;49.412;20.956;2022-11-24T15:41:49;94398.31;;;1.08;100.00
22047;BME280;11187;49.412;20.956;2022-11-24T15:44:43;94403.31;;;1.07;100.00
22047;BME280;11187;49.412;20.956;2022-11-24T15:47:16;94405.00;;;1.06;100.00
22047;BME280;11187;49.412;20.956;2022-11-24T15:50:11;94406.72;;;1.07;100.00
22047;BME280;11187;49.412;20.956;2022-11-24T15:52:45;94407.53;;;1.06;100.00
22047;BME280;11187;49.412;20.956;2022-11-24T15:55:33;94415.09;;;1.04;100.00
22047;BME280;11187;49.412;20.956;2022-11-24T15:58:11;94407.53;;;1.03;100.00
22047;BME280;11187;49.412;20.956;2022-11-24T16:01:05;94411.72;;;1.04;100.00
22047;BME280;11187;49.412;20.956;2022-11-24T16:04:00;94418.47;;;1.05;100.00